Rockford, Indiana
Current Conditions -  °F | °C
As of 2:55 PM on Sunday 21 Dec 2014 (Local Time) from KHHG Reporting Station
Clear Clear  
Wind Chill: 29°   Ceiling: Unl
Heat Index: 35°   Visibility: 7mi
Dew Point: 27°   Wind: 7mph
Humidity: 72%   Direction: 160°SSE
Pressure: 30.17"   Gusts: NA
Location:  40.7175°N, 85.1549°W
Report Text: KHHG 211955Z AUTO 16006KT 7SM CLR 02/M03 A3017 RMK AO2 T00171029
Loading
Personal Weather Stations






























Interactive Weather Map New forecast layout! Learn more

10-Day Weather Forecast

Advertisements
Track Severe Weather on mobile